地図

経路データ

SID SEASON NUMBER BASIN SUBBASIN NAME ISO_TIME NATURE LAT LON WMO_WIND WMO_PRES WMO_AGENCY TRACK_TYPE DIST2LAND LANDFALL IFLAG USA_AGENCY USA_ATCF_ID USA_LAT USA_LON USA_RECORD USA_STATUS USA_WIND USA_PRES USA_SSHS USA_R34_NE USA_R34_SE USA_R34_SW USA_R34_NW USA_R50_NE USA_R50_SE USA_R50_SW USA_R50_NW USA_R64_NE USA_R64_SE USA_R64_SW USA_R64_NW USA_POCI USA_ROCI USA_RMW USA_EYE TOKYO_LAT TOKYO_LON TOKYO_GRADE TOKYO_WIND TOKYO_PRES TOKYO_R50_DIR TOKYO_R50_LONG TOKYO_R50_SHORT TOKYO_R30_DIR TOKYO_R30_LONG TOKYO_R30_SHORT TOKYO_LAND CMA_LAT CMA_LON CMA_CAT CMA_WIND CMA_PRES HKO_LAT HKO_LON HKO_CAT HKO_WIND HKO_PRES NEWDELHI_LAT NEWDELHI_LON NEWDELHI_GRADE NEWDELHI_WIND NEWDELHI_PRES NEWDELHI_CI NEWDELHI_DP NEWDELHI_POCI REUNION_LAT REUNION_LON REUNION_TYPE REUNION_WIND REUNION_PRES REUNION_TNUM REUNION_CI REUNION_RMW REUNION_R34_NE REUNION_R34_SE REUNION_R34_SW REUNION_R34_NW REUNION_R50_NE REUNION_R50_SE REUNION_R50_SW REUNION_R50_NW REUNION_R64_NE REUNION_R64_SE REUNION_R64_SW REUNION_R64_NW BOM_LAT BOM_LON BOM_TYPE BOM_WIND BOM_PRES BOM_TNUM BOM_CI BOM_RMW BOM_R34_NE BOM_R34_SE BOM_R34_SW BOM_R34_NW BOM_R50_NE BOM_R50_SE BOM_R50_SW BOM_R50_NW BOM_R64_NE BOM_R64_SE BOM_R64_SW BOM_R64_NW BOM_ROCI BOM_POCI BOM_EYE BOM_POS_METHOD BOM_PRES_METHOD NADI_LAT NADI_LON NADI_CAT NADI_WIND NADI_PRES WELLINGTON_LAT WELLINGTON_LON WELLINGTON_WIND WELLINGTON_PRES DS824_LAT DS824_LON DS824_STAGE DS824_WIND DS824_PRES TD9636_LAT TD9636_LON TD9636_STAGE TD9636_WIND TD9636_PRES TD9635_LAT TD9635_LON TD9635_WIND TD9635_PRES TD9635_ROCI NEUMANN_LAT NEUMANN_LON NEUMANN_CLASS NEUMANN_WIND NEUMANN_PRES MLC_LAT MLC_LON MLC_CLASS MLC_WIND MLC_PRES USA_GUST BOM_GUST BOM_GUST_PER REUNION_GUST REUNION_GUST_PER USA_SEAHGT USA_SEARAD_NE USA_SEARAD_SE USA_SEARAD_SW USA_SEARAD_NW STORM_SPEED STORM_DIR
1972161N16123 1972 45 WP MM NOT_NAMED 1972-06-09 00:00:00 TS 16.2000 123.000 main 85 0 __O___________ -1 16.2000 123.000 0 19 1004 16 304
1972161N16123 1972 45 WP MM NOT_NAMED 1972-06-09 03:00:00 TS 16.6473 122.305 main 0 0 __P___________ -1 16.6473 122.305 0 19 1004 18 300
1972161N16123 1972 45 WP MM NOT_NAMED 1972-06-09 06:00:00 TS 17.1000 121.400 main 0 0 __O___________ -1 17.1000 121.400 0 19 1004 23 294
1972161N16123 1972 45 WP MM NOT_NAMED 1972-06-09 09:00:00 TS 17.5452 120.148 main 23 21 __P___________ -1 17.5452 120.148 0 19 1003 27 287
1972161N16123 1972 45 WP MM NOT_NAMED 1972-06-09 12:00:00 TS 17.9000 118.700 main 172 172 __O___________ -1 17.9000 118.700 0 19 1002 29 280
1972161N16123 1972 45 WP MM NOT_NAMED 1972-06-09 15:00:00 TS 18.0742 117.122 main 343 343 __P___________ -1 18.0742 117.122 0 19 1002 28 276
1972161N16123 1972 45 WP MM NOT_NAMED 1972-06-09 18:00:00 TS 18.2000 115.800 main 475 446 __O___________ -1 18.2000 115.800 0 19 1002 19 281
1972161N16123 1972 45 WP MM NOT_NAMED 1972-06-09 21:00:00 TS 18.4406 115.135 main 444 381 __P___________ -1 18.4406 115.135 0 21 1001 14 294
1972161N16123 1972 45 WP MM NOT_NAMED 1972-06-10 00:00:00 TS 18.7600 114.480 main 378 321 __OO__________ -1 18.7000 114.800 1 23 1000 19.0000 113.200 TD 25 1004 13 297
1972161N16123 1972 45 WP MM NOT_NAMED 1972-06-10 03:00:00 TS 19.0067 113.961 main 321 285 __PP__________ -1 18.8850 114.367 1 23 1000 19.2500 113.148 TD 25 1003 9 305
1972161N16123 1972 45 WP MM NOT_NAMED 1972-06-10 06:00:00 TS 19.2714 113.714 main 285 267 __OO__________ -1 19.1000 114.100 1 23 1000 19.5000 113.200 TD 25 1002 6 341
1972161N16123 1972 45 WP MM NOT_NAMED 1972-06-10 09:00:00 TS 19.5849 113.746 main 267 246 __PP__________ -1 19.4198 114.060 1 23 1000 19.7500 113.433 TD 25 1001 7 26
1972161N16123 1972 45 WP MM NOT_NAMED 1972-06-10 12:00:00 TS 19.8857 114.029 main 246 233 __OO__________ -1 19.8000 114.200 1 23 1000 20.0000 113.800 TD 25 1000 9 42
1972161N16123 1972 45 WP MM NOT_NAMED 1972-06-10 15:00:00 TS 20.2218 114.353 main 235 194 __PP__________ -1 20.2075 114.412 1 23 1000 20.2503 114.235 TD 25 1000 9 42
1972161N16123 1972 45 WP MM NOT_NAMED 1972-06-10 18:00:00 TS 20.5800 114.700 main 194 168 __OO__________ -1 20.6000 114.700 1 23 1000 20.5000 114.700 TD 25 1000 9 41
1972161N16123 1972 45 WP MM NOT_NAMED 1972-06-10 21:00:00 TS 20.9150 114.993 main 172 148 __P___________ -1 20.9150 114.993 1 23 1000 TD 8 42
1972161N16123 1972 45 WP MM NOT_NAMED 1972-06-11 00:00:00 TS 21.2000 115.300 main 151 127 __O___________ -1 21.2000 115.300 1 23 1000 8 43
1972161N16123 1972 45 WP MM NOT_NAMED 1972-06-11 03:00:00 TS 21.5225 115.607 main 133 101 __P___________ -1 21.5225 115.607 1 23 1000 8 43
1972161N16123 1972 45 WP MM NOT_NAMED 1972-06-11 06:00:00 TS 21.8000 115.900 main 101 91 __O___________ -1 21.8000 115.900 1 23 1000 7 48
1972161N16123 1972 45 WP MM NOT_NAMED 1972-06-11 09:00:00 TS 21.9573 116.128 main 84 80 __P___________ -1 21.9573 116.128 1 23 1000 6 57
1972161N16123 1972 45 WP MM NOT_NAMED 1972-06-11 12:00:00 TS 22.1000 116.400 main 84 70 __O___________ -1 22.1000 116.400 1 23 1000 7 61
1972161N16123 1972 45 WP MM NOT_NAMED 1972-06-11 15:00:00 TS 22.3201 116.820 main 73 69 __P___________ -1 22.3201 116.820 1 23 1000 10 59
1972161N16123 1972 45 WP MM NOT_NAMED 1972-06-11 18:00:00 TS 22.6000 117.300 main 88 88 __O___________ -1 22.6000 117.300 1 23 1001 11 55
1972161N16123 1972 45 WP MM NOT_NAMED 1972-06-11 21:00:00 TS 22.9351 117.760 main 91 69 __P___________ -1 22.9351 117.760 1 21 1001 11 50
1972161N16123 1972 45 WP MM NOT_NAMED 1972-06-12 00:00:00 TS 23.3000 118.200 main 75 __O___________ -1 23.3000 118.200 0 19 1002 11 48

デジタル台風データ・検索

IBTrACS Databaseについて

本データベースは、米国NOAAが公開する1842年以降の世界の熱帯低気圧のベストトラックデータアーカイブInternational Best Track Archive for Climate Stewardship (IBTrACS)を、ウェブで閲覧しやすい形式に変換したものです。

最終更新日:2021-10-19